sensor_id;sensor_type;location;lat;lon;timestamp;P1;durP1;ratioP1;P2;durP2;ratioP2
61413;SDS011;47279;52.426;10.488;2022-12-18T00:02:06;11.93;;;10.68;;
61413;SDS011;47279;52.426;10.488;2022-12-18T00:04:32;12.80;;;11.38;;
61413;SDS011;47279;52.426;10.488;2022-12-18T00:06:58;12.77;;;10.98;;
61413;SDS011;47279;52.426;10.488;2022-12-18T00:09:24;13.45;;;10.77;;
61413;SDS011;47279;52.426;10.488;2022-12-18T00:11:50;12.40;;;10.93;;
61413;SDS011;47279;52.426;10.488;2022-12-18T00:14:16;12.48;;;10.63;;
61413;SDS011;47279;52.426;10.488;2022-12-18T00:16:45;11.98;;;10.73;;
61413;SDS011;47279;52.426;10.488;2022-12-18T00:19:11;12.18;;;10.88;;
61413;SDS011;47279;52.426;10.488;2022-12-18T00:21:37;12.82;;;10.73;;
61413;SDS011;47279;52.426;10.488;2022-12-18T00:24:03;14.25;;;11.55;;
61413;SDS011;47279;52.426;10.488;2022-12-18T00:26:30;13.85;;;11.57;;
61413;SDS011;47279;52.426;10.488;2022-12-18T00:29:00;12.25;;;10.60;;
61413;SDS011;47279;52.426;10.488;2022-12-18T00:31:26;12.38;;;11.07;;
61413;SDS011;47279;52.426;10.488;2022-12-18T00:33:56;11.77;;;10.52;;
61413;SDS011;47279;52.426;10.488;2022-12-18T00:36:26;11.07;;;9.85;;
61413;SDS011;47279;52.426;10.488;2022-12-18T00:38:53;11.68;;;10.48;;
61413;SDS011;47279;52.426;10.488;2022-12-18T00:41:19;13.48;;;11.27;;
61413;SDS011;47279;52.426;10.488;2022-12-18T00:44:05;13.63;;;11.63;;
61413;SDS011;47279;52.426;10.488;2022-12-18T00:46:32;13.52;;;11.85;;
61413;SDS011;47279;52.426;10.488;2022-12-18T00:48:58;12.05;;;10.75;;
61413;SDS011;47279;52.426;10.488;2022-12-18T00:51:24;12.55;;;10.68;;
61413;SDS011;47279;52.426;10.488;2022-12-18T00:53:51;11.80;;;10.40;;
61413;SDS011;47279;52.426;10.488;2022-12-18T00:56:17;12.30;;;10.65;;
61413;SDS011;47279;52.426;10.488;2022-12-18T00:58:43;12.38;;;10.48;;
61413;SDS011;47279;52.426;10.488;2022-12-18T01:01:09;12.77;;;10.95;;
61413;SDS011;47279;52.426;10.488;2022-12-18T01:03:35;12.02;;;10.73;;
61413;SDS011;47279;52.426;10.488;2022-12-18T01:06:07;13.98;;;10.57;;
61413;SDS011;47279;52.426;10.488;2022-12-18T01:08:33;11.68;;;10.45;;
61413;SDS011;47279;52.426;10.488;2022-12-18T01:11:00;12.52;;;10.30;;
61413;SDS011;47279;52.426;10.488;2022-12-18T01:13:26;12.43;;;10.82;;
61413;SDS011;47279;52.426;10.488;2022-12-18T01:15:52;12.80;;;10.75;;
61413;SDS011;47279;52.426;10.488;2022-12-18T01:18:18;12.23;;;10.68;;
61413;SDS011;47279;52.426;10.488;2022-12-18T01:20:44;12.35;;;10.55;;
61413;SDS011;47279;52.426;10.488;2022-12-18T01:23:10;11.35;;;10.15;;
61413;SDS011;47279;52.426;10.488;2022-12-18T01:25:36;12.35;;;11.05;;
61413;SDS011;47279;52.426;10.488;2022-12-18T01:28:02;13.35;;;11.95;;
61413;SDS011;47279;52.426;10.488;2022-12-18T01:30:28;12.98;;;10.98;;
61413;SDS011;47279;52.426;10.488;2022-12-18T01:32:54;11.95;;;10.75;;
61413;SDS011;47279;52.426;10.488;2022-12-18T01:35:20;11.52;;;10.32;;
61413;SDS011;47279;52.426;10.488;2022-12-18T01:37:46;12.32;;;11.02;;
61413;SDS011;47279;52.426;10.488;2022-12-18T01:40:12;11.45;;;10.27;;
61413;SDS011;47279;52.426;10.488;2022-12-18T01:42:38;12.88;;;10.50;;
61413;SDS011;47279;52.426;10.488;2022-12-18T01:49:56;12.05;;;10.55;;
61413;SDS011;47279;52.426;10.488;2022-12-18T01:52:23;12.50;;;11.20;;
61413;SDS011;47279;52.426;10.488;2022-12-18T01:54:50;12.07;;;10.82;;
61413;SDS011;47279;52.426;10.488;2022-12-18T01:57:16;11.27;;;9.75;;
61413;SDS011;47279;52.426;10.488;2022-12-18T01:59:43;11.77;;;10.50;;
61413;SDS011;47279;52.426;10.488;2022-12-18T02:02:11;12.02;;;10.05;;
61413;SDS011;47279;52.426;10.488;2022-12-18T02:04:37;11.20;;;10.00;;
61413;SDS011;47279;52.426;10.488;2022-12-18T02:09:48;11.20;;;10.05;;
61413;SDS011;47279;52.426;10.488;2022-12-18T02:12:18;10.32;;;9.30;;
61413;SDS011;47279;52.426;10.488;2022-12-18T02:20:35;11.23;;;10.20;;
61413;SDS011;47279;52.426;10.488;2022-12-18T02:28:19;10.43;;;9.30;;
61413;SDS011;47279;52.426;10.488;2022-12-18T02:30:46;11.32;;;10.15;;
61413;SDS011;47279;52.426;10.488;2022-12-18T02:33:13;10.95;;;9.85;;
61413;SDS011;47279;52.426;10.488;2022-12-18T02:35:40;11.27;;;9.68;;
61413;SDS011;47279;52.426;10.488;2022-12-18T02:38:07;9.60;;;8.23;;
61413;SDS011;47279;52.426;10.488;2022-12-18T02:40:33;10.80;;;9.70;;
61413;SDS011;47279;52.426;10.488;2022-12-18T02:43:07;10.93;;;9.50;;
61413;SDS011;47279;52.426;10.488;2022-12-18T02:45:33;9.95;;;8.90;;
61413;SDS011;47279;52.426;10.488;2022-12-18T02:47:59;11.25;;;9.75;;
61413;SDS011;47279;52.426;10.488;2022-12-18T02:50:27;12.27;;;9.93;;
61413;SDS011;47279;52.426;10.488;2022-12-18T02:57:49;10.65;;;9.55;;
61413;SDS011;47279;52.426;10.488;2022-12-18T03:00:17;10.50;;;9.48;;
61413;SDS011;47279;52.426;10.488;2022-12-18T03:07:42;10.65;;;9.55;;
61413;SDS011;47279;52.426;10.488;2022-12-18T03:10:11;9.80;;;8.80;;
61413;SDS011;47279;52.426;10.488;2022-12-18T03:12:40;11.02;;;9.23;;
61413;SDS011;47279;52.426;10.488;2022-12-18T03:15:19;11.23;;;9.32;;
61413;SDS011;47279;52.426;10.488;2022-12-18T03:17:48;9.82;;;8.57;;
61413;SDS011;47279;52.426;10.488;2022-12-18T03:20:18;10.23;;;9.18;;
61413;SDS011;47279;52.426;10.488;2022-12-18T03:22:46;11.57;;;9.60;;
61413;SDS011;47279;52.426;10.488;2022-12-18T03:25:13;10.18;;;8.93;;
61413;SDS011;47279;52.426;10.488;2022-12-18T03:27:42;10.40;;;9.27;;
61413;SDS011;47279;52.426;10.488;2022-12-18T03:30:10;9.65;;;8.65;;
61413;SDS011;47279;52.426;10.488;2022-12-18T03:32:54;10.50;;;9.23;;
61413;SDS011;47279;52.426;10.488;2022-12-18T03:35:25;9.68;;;8.70;;
61413;SDS011;47279;52.426;10.488;2022-12-18T03:37:52;9.85;;;8.93;;
61413;SDS011;47279;52.426;10.488;2022-12-18T03:40:19;9.90;;;8.80;;
61413;SDS011;47279;52.426;10.488;2022-12-18T03:42:47;9.55;;;8.55;;
61413;SDS011;47279;52.426;10.488;2022-12-18T03:45:24;9.55;;;8.55;;
61413;SDS011;47279;52.426;10.488;2022-12-18T03:53:00;10.00;;;9.00;;
61413;SDS011;47279;52.426;10.488;2022-12-18T03:55:30;10.57;;;9.48;;
61413;SDS011;47279;52.426;10.488;2022-12-18T03:57:59;9.93;;;8.93;;
61413;SDS011;47279;52.426;10.488;2022-12-18T04:00:27;10.43;;;8.70;;
61413;SDS011;47279;52.426;10.488;2022-12-18T04:02:55;9.77;;;8.65;;
61413;SDS011;47279;52.426;10.488;2022-12-18T04:05:22;9.80;;;8.23;;
61413;SDS011;47279;52.426;10.488;2022-12-18T04:07:49;10.80;;;8.75;;
61413;SDS011;47279;52.426;10.488;2022-12-18T04:10:17;9.48;;;8.57;;
61413;SDS011;47279;52.426;10.488;2022-12-18T04:12:43;9.68;;;8.55;;
61413;SDS011;47279;52.426;10.488;2022-12-18T04:15:09;10.00;;;8.95;;
61413;SDS011;47279;52.426;10.488;2022-12-18T04:17:36;9.95;;;8.95;;
61413;SDS011;47279;52.426;10.488;2022-12-18T04:20:02;9.27;;;8.02;;
61413;SDS011;47279;52.426;10.488;2022-12-18T04:22:28;9.57;;;8.07;;
61413;SDS011;47279;52.426;10.488;2022-12-18T04:24:54;9.15;;;8.25;;
61413;SDS011;47279;52.426;10.488;2022-12-18T04:27:20;10.05;;;8.68;;
61413;SDS011;47279;52.426;10.488;2022-12-18T04:29:46;10.02;;;8.45;;
61413;SDS011;47279;52.426;10.488;2022-12-18T04:32:12;9.43;;;8.40;;
61413;SDS011;47279;52.426;10.488;2022-12-18T04:34:38;9.50;;;8.52;;
61413;SDS011;47279;52.426;10.488;2022-12-18T04:37:04;8.70;;;7.80;;
61413;SDS011;47279;52.426;10.488;2022-12-18T04:39:30;10.07;;;8.88;;
61413;SDS011;47279;52.426;10.488;2022-12-18T04:41:56;9.55;;;8.60;;
61413;SDS011;47279;52.426;10.488;2022-12-18T04:44:22;9.82;;;8.82;;
61413;SDS011;47279;52.426;10.488;2022-12-18T04:46:48;10.10;;;8.80;;
61413;SDS011;47279;52.426;10.488;2022-12-18T04:49:14;8.93;;;8.13;;
61413;SDS011;47279;52.426;10.488;2022-12-18T04:51:40;9.35;;;8.30;;
61413;SDS011;47279;52.426;10.488;2022-12-18T04:54:06;10.35;;;8.80;;
61413;SDS011;47279;52.426;10.488;2022-12-18T04:56:32;8.35;;;7.55;;
61413;SDS011;47279;52.426;10.488;2022-12-18T04:58:58;9.80;;;8.80;;
61413;SDS011;47279;52.426;10.488;2022-12-18T05:01:24;9.32;;;8.43;;
61413;SDS011;47279;52.426;10.488;2022-12-18T05:03:50;9.32;;;8.32;;
61413;SDS011;47279;52.426;10.488;2022-12-18T05:06:16;8.93;;;8.02;;
61413;SDS011;47279;52.426;10.488;2022-12-18T05:08:42;8.95;;;7.85;;
61413;SDS011;47279;52.426;10.488;2022-12-18T05:11:09;9.98;;;8.15;;
61413;SDS011;47279;52.426;10.488;2022-12-18T05:13:36;9.85;;;8.60;;
61413;SDS011;47279;52.426;10.488;2022-12-18T05:16:02;8.75;;;7.85;;
61413;SDS011;47279;52.426;10.488;2022-12-18T05:18:28;8.18;;;7.38;;
61413;SDS011;47279;52.426;10.488;2022-12-18T05:20:54;8.40;;;7.60;;
61413;SDS011;47279;52.426;10.488;2022-12-18T05:23:21;8.63;;;7.78;;
61413;SDS011;47279;52.426;10.488;2022-12-18T05:25:51;8.48;;;7.68;;
61413;SDS011;47279;52.426;10.488;2022-12-18T05:28:17;9.32;;;8.40;;
61413;SDS011;47279;52.426;10.488;2022-12-18T05:30:47;9.40;;;7.53;;
61413;SDS011;47279;52.426;10.488;2022-12-18T05:33:14;8.18;;;7.38;;
61413;SDS011;47279;52.426;10.488;2022-12-18T05:35:40;8.70;;;7.70;;
61413;SDS011;47279;52.426;10.488;2022-12-18T05:38:06;10.25;;;8.48;;
61413;SDS011;47279;52.426;10.488;2022-12-18T05:40:32;8.77;;;7.80;;
61413;SDS011;47279;52.426;10.488;2022-12-18T05:42:58;9.20;;;8.30;;
61413;SDS011;47279;52.426;10.488;2022-12-18T05:45:24;9.13;;;8.30;;
61413;SDS011;47279;52.426;10.488;2022-12-18T05:47:50;9.10;;;8.20;;
61413;SDS011;47279;52.426;10.488;2022-12-18T05:50:16;8.60;;;7.70;;
61413;SDS011;47279;52.426;10.488;2022-12-18T05:52:42;9.02;;;8.13;;
61413;SDS011;47279;52.426;10.488;2022-12-18T05:55:08;8.23;;;7.40;;
61413;SDS011;47279;52.426;10.488;2022-12-18T05:57:34;9.48;;;8.43;;
61413;SDS011;47279;52.426;10.488;2022-12-18T05:59:59;9.23;;;8.30;;
61413;SDS011;47279;52.426;10.488;2022-12-18T06:02:26;8.63;;;7.82;;
61413;SDS011;47279;52.426;10.488;2022-12-18T06:04:51;8.43;;;7.53;;
61413;SDS011;47279;52.426;10.488;2022-12-18T06:07:17;7.95;;;7.18;;
61413;SDS011;47279;52.426;10.488;2022-12-18T06:09:43;8.52;;;7.68;;
61413;SDS011;47279;52.426;10.488;2022-12-18T06:12:09;8.35;;;7.55;;
61413;SDS011;47279;52.426;10.488;2022-12-18T06:14:35;8.77;;;7.88;;
61413;SDS011;47279;52.426;10.488;2022-12-18T06:17:01;9.30;;;7.90;;
61413;SDS011;47279;52.426;10.488;2022-12-18T06:19:27;8.57;;;7.68;;
61413;SDS011;47279;52.426;10.488;2022-12-18T06:21:53;8.23;;;7.43;;
61413;SDS011;47279;52.426;10.488;2022-12-18T06:24:19;9.23;;;8.32;;
61413;SDS011;47279;52.426;10.488;2022-12-18T06:26:45;9.07;;;7.68;;
61413;SDS011;47279;52.426;10.488;2022-12-18T06:29:11;9.35;;;7.63;;
61413;SDS011;47279;52.426;10.488;2022-12-18T06:31:37;8.20;;;7.32;;
61413;SDS011;47279;52.426;10.488;2022-12-18T06:34:03;8.43;;;7.53;;
61413;SDS011;47279;52.426;10.488;2022-12-18T06:36:30;8.38;;;7.55;;
61413;SDS011;47279;52.426;10.488;2022-12-18T06:38:56;8.38;;;7.47;;
61413;SDS011;47279;52.426;10.488;2022-12-18T06:41:22;8.25;;;7.45;;
61413;SDS011;47279;52.426;10.488;2022-12-18T06:43:48;10.25;;;7.85;;
61413;SDS011;47279;52.426;10.488;2022-12-18T06:46:14;7.97;;;7.15;;
61413;SDS011;47279;52.426;10.488;2022-12-18T06:48:40;8.10;;;7.30;;
61413;SDS011;47279;52.426;10.488;2022-12-18T06:51:06;8.43;;;7.38;;
61413;SDS011;47279;52.426;10.488;2022-12-18T06:53:32;8.13;;;7.32;;
61413;SDS011;47279;52.426;10.488;2022-12-18T06:55:59;8.25;;;7.50;;
61413;SDS011;47279;52.426;10.488;2022-12-18T06:58:25;9.02;;;7.32;;
61413;SDS011;47279;52.426;10.488;2022-12-18T07:00:52;8.95;;;8.02;;
61413;SDS011;47279;52.426;10.488;2022-12-18T07:03:18;8.35;;;7.50;;
61413;SDS011;47279;52.426;10.488;2022-12-18T07:05:44;8.50;;;7.40;;
61413;SDS011;47279;52.426;10.488;2022-12-18T07:08:10;8.43;;;7.57;;
61413;SDS011;47279;52.426;10.488;2022-12-18T07:10:45;8.82;;;7.93;;
61413;SDS011;47279;52.426;10.488;2022-12-18T07:13:11;7.93;;;7.18;;
61413;SDS011;47279;52.426;10.488;2022-12-18T07:15:37;8.68;;;7.20;;
61413;SDS011;47279;52.426;10.488;2022-12-18T07:18:03;8.60;;;7.65;;
61413;SDS011;47279;52.426;10.488;2022-12-18T07:20:29;8.70;;;7.85;;
61413;SDS011;47279;52.426;10.488;2022-12-18T07:22:55;8.38;;;7.55;;
61413;SDS011;47279;52.426;10.488;2022-12-18T07:25:21;8.20;;;7.50;;
61413;SDS011;47279;52.426;10.488;2022-12-18T07:27:47;8.25;;;7.45;;
61413;SDS011;47279;52.426;10.488;2022-12-18T07:30:12;8.80;;;7.65;;
61413;SDS011;47279;52.426;10.488;2022-12-18T07:32:38;8.68;;;7.78;;
61413;SDS011;47279;52.426;10.488;2022-12-18T07:35:04;8.38;;;7.50;;
61413;SDS011;47279;52.426;10.488;2022-12-18T07:37:30;7.72;;;6.90;;
61413;SDS011;47279;52.426;10.488;2022-12-18T07:39:56;8.63;;;7.72;;
61413;SDS011;47279;52.426;10.488;2022-12-18T07:42:22;8.23;;;7.43;;
61413;SDS011;47279;52.426;10.488;2022-12-18T07:44:58;8.43;;;7.63;;
61413;SDS011;47279;52.426;10.488;2022-12-18T07:47:24;8.60;;;7.72;;
61413;SDS011;47279;52.426;10.488;2022-12-18T07:49:50;8.30;;;7.50;;
61413;SDS011;47279;52.426;10.488;2022-12-18T07:52:16;8.57;;;7.68;;
61413;SDS011;47279;52.426;10.488;2022-12-18T07:54:42;8.63;;;7.82;;
61413;SDS011;47279;52.426;10.488;2022-12-18T07:57:08;9.10;;;7.72;;
61413;SDS011;47279;52.426;10.488;2022-12-18T07:59:34;9.35;;;7.50;;
61413;SDS011;47279;52.426;10.488;2022-12-18T08:02:00;8.70;;;7.90;;
61413;SDS011;47279;52.426;10.488;2022-12-18T08:04:26;8.18;;;7.38;;
61413;SDS011;47279;52.426;10.488;2022-12-18T08:06:52;8.02;;;7.22;;
61413;SDS011;47279;52.426;10.488;2022-12-18T08:09:18;8.48;;;7.57;;
61413;SDS011;47279;52.426;10.488;2022-12-18T08:11:44;8.65;;;7.80;;
61413;SDS011;47279;52.426;10.488;2022-12-18T08:14:10;8.68;;;7.30;;
61413;SDS011;47279;52.426;10.488;2022-12-18T08:16:36;8.88;;;7.72;;
61413;SDS011;47279;52.426;10.488;2022-12-18T08:19:02;8.75;;;7.85;;
61413;SDS011;47279;52.426;10.488;2022-12-18T08:21:29;8.88;;;8.00;;
61413;SDS011;47279;52.426;10.488;2022-12-18T08:23:56;9.02;;;7.20;;
61413;SDS011;47279;52.426;10.488;2022-12-18T08:26:23;8.63;;;7.72;;
61413;SDS011;47279;52.426;10.488;2022-12-18T08:28:49;9.25;;;8.00;;
61413;SDS011;47279;52.426;10.488;2022-12-18T08:31:16;8.88;;;7.53;;
61413;SDS011;47279;52.426;10.488;2022-12-18T08:33:42;8.18;;;7.03;;
61413;SDS011;47279;52.426;10.488;2022-12-18T08:36:08;9.38;;;8.35;;
61413;SDS011;47279;52.426;10.488;2022-12-18T08:38:34;8.43;;;7.47;;
61413;SDS011;47279;52.426;10.488;2022-12-18T08:41:08;9.05;;;8.15;;
61413;SDS011;47279;52.426;10.488;2022-12-18T08:43:34;9.23;;;8.27;;
61413;SDS011;47279;52.426;10.488;2022-12-18T08:46:19;8.70;;;7.85;;
61413;SDS011;47279;52.426;10.488;2022-12-18T08:48:45;8.70;;;7.82;;
61413;SDS011;47279;52.426;10.488;2022-12-18T08:51:11;8.63;;;7.57;;
61413;SDS011;47279;52.426;10.488;2022-12-18T08:53:38;8.07;;;7.07;;
61413;SDS011;47279;52.426;10.488;2022-12-18T08:56:04;8.07;;;7.30;;
61413;SDS011;47279;52.426;10.488;2022-12-18T08:58:30;9.18;;;7.68;;
61413;SDS011;47279;52.426;10.488;2022-12-18T09:01:00;8.73;;;7.82;;
61413;SDS011;47279;52.426;10.488;2022-12-18T09:03:26;8.57;;;7.63;;
61413;SDS011;47279;52.426;10.488;2022-12-18T09:05:52;8.73;;;7.78;;
61413;SDS011;47279;52.426;10.488;2022-12-18T09:08:18;8.43;;;7.53;;
61413;SDS011;47279;52.426;10.488;2022-12-18T09:10:45;9.15;;;8.05;;
61413;SDS011;47279;52.426;10.488;2022-12-18T09:13:11;8.70;;;7.63;;
61413;SDS011;47279;52.426;10.488;2022-12-18T09:15:47;8.57;;;7.70;;
61413;SDS011;47279;52.426;10.488;2022-12-18T09:18:14;8.77;;;7.88;;
61413;SDS011;47279;52.426;10.488;2022-12-18T09:20:41;9.57;;;8.60;;
61413;SDS011;47279;52.426;10.488;2022-12-18T09:23:07;8.43;;;7.63;;
61413;SDS011;47279;52.426;10.488;2022-12-18T09:25:34;8.73;;;7.82;;
61413;SDS011;47279;52.426;10.488;2022-12-18T09:28:01;9.43;;;8.05;;
61413;SDS011;47279;52.426;10.488;2022-12-18T09:30:27;8.30;;;7.47;;
61413;SDS011;47279;52.426;10.488;2022-12-18T09:32:53;8.63;;;7.80;;
61413;SDS011;47279;52.426;10.488;2022-12-18T09:35:19;8.68;;;7.78;;
61413;SDS011;47279;52.426;10.488;2022-12-18T09:37:45;9.32;;;8.30;;
61413;SDS011;47279;52.426;10.488;2022-12-18T09:40:14;8.73;;;7.82;;
61413;SDS011;47279;52.426;10.488;2022-12-18T09:42:42;9.85;;;8.85;;
61413;SDS011;47279;52.426;10.488;2022-12-18T09:45:12;8.82;;;7.97;;
61413;SDS011;47279;52.426;10.488;2022-12-18T09:47:39;8.73;;;7.88;;
61413;SDS011;47279;52.426;10.488;2022-12-18T09:50:27;8.18;;;7.35;;
61413;SDS011;47279;52.426;10.488;2022-12-18T09:52:55;7.72;;;7.03;;
61413;SDS011;47279;52.426;10.488;2022-12-18T09:55:24;9.15;;;8.27;;
61413;SDS011;47279;52.426;10.488;2022-12-18T09:57:53;7.80;;;7.00;;
61413;SDS011;47279;52.426;10.488;2022-12-18T10:00:20;8.52;;;7.63;;
61413;SDS011;47279;52.426;10.488;2022-12-18T10:02:47;7.90;;;7.10;;
61413;SDS011;47279;52.426;10.488;2022-12-18T10:05:17;7.82;;;7.07;;
61413;SDS011;47279;52.426;10.488;2022-12-18T10:08:02;8.25;;;7.45;;
61413;SDS011;47279;52.426;10.488;2022-12-18T10:10:47;8.32;;;7.53;;
61413;SDS011;47279;52.426;10.488;2022-12-18T10:13:20;8.55;;;7.75;;
61413;SDS011;47279;52.426;10.488;2022-12-18T10:18:39;8.05;;;7.22;;
61413;SDS011;47279;52.426;10.488;2022-12-18T10:21:11;8.43;;;7.53;;
61413;SDS011;47279;52.426;10.488;2022-12-18T10:24:22;8.35;;;7.45;;
61413;SDS011;47279;52.426;10.488;2022-12-18T10:26:28;7.53;;;6.75;;
61413;SDS011;47279;52.426;10.488;2022-12-18T10:28:54;7.50;;;6.80;;
61413;SDS011;47279;52.426;10.488;2022-12-18T10:31:22;7.80;;;7.00;;
61413;SDS011;47279;52.426;10.488;2022-12-18T10:33:48;8.15;;;7.35;;
61413;SDS011;47279;52.426;10.488;2022-12-18T10:36:14;7.75;;;6.95;;
61413;SDS011;47279;52.426;10.488;2022-12-18T10:38:40;7.50;;;6.70;;
61413;SDS011;47279;52.426;10.488;2022-12-18T10:41:27;8.48;;;7.65;;
61413;SDS011;47279;52.426;10.488;2022-12-18T10:44:10;8.38;;;7.57;;
61413;SDS011;47279;52.426;10.488;2022-12-18T10:46:36;7.80;;;6.90;;
61413;SDS011;47279;52.426;10.488;2022-12-18T10:49:02;8.32;;;7.53;;
61413;SDS011;47279;52.426;10.488;2022-12-18T10:51:29;8.82;;;7.75;;
61413;SDS011;47279;52.426;10.488;2022-12-18T10:56:26;8.65;;;7.78;;
61413;SDS011;47279;52.426;10.488;2022-12-18T10:59:00;7.45;;;6.75;;
61413;SDS011;47279;52.426;10.488;2022-12-18T11:01:26;7.78;;;6.50;;
61413;SDS011;47279;52.426;10.488;2022-12-18T11:06:20;9.15;;;7.65;;
61413;SDS011;47279;52.426;10.488;2022-12-18T11:09:01;7.93;;;6.95;;
61413;SDS011;47279;52.426;10.488;2022-12-18T11:11:27;7.90;;;7.10;;
61413;SDS011;47279;52.426;10.488;2022-12-18T11:14:03;8.57;;;7.75;;
61413;SDS011;47279;52.426;10.488;2022-12-18T11:16:33;7.68;;;6.80;;
61413;SDS011;47279;52.426;10.488;2022-12-18T11:19:17;8.45;;;7.65;;
61413;SDS011;47279;52.426;10.488;2022-12-18T11:21:46;7.40;;;6.68;;
61413;SDS011;47279;52.426;10.488;2022-12-18T11:24:18;7.13;;;6.40;;
61413;SDS011;47279;52.426;10.488;2022-12-18T11:26:45;8.00;;;7.13;;
61413;SDS011;47279;52.426;10.488;2022-12-18T11:29:16;8.45;;;7.47;;
61413;SDS011;47279;52.426;10.488;2022-12-18T11:31:42;7.90;;;7.10;;
61413;SDS011;47279;52.426;10.488;2022-12-18T11:34:10;7.97;;;7.05;;
61413;SDS011;47279;52.426;10.488;2022-12-18T11:36:39;8.43;;;7.40;;
61413;SDS011;47279;52.426;10.488;2022-12-18T11:39:10;7.07;;;6.38;;
61413;SDS011;47279;52.426;10.488;2022-12-18T11:42:12;7.65;;;6.85;;
61413;SDS011;47279;52.426;10.488;2022-12-18T11:44:38;9.10;;;6.57;;
61413;SDS011;47279;52.426;10.488;2022-12-18T11:47:12;8.07;;;6.97;;
61413;SDS011;47279;52.426;10.488;2022-12-18T11:49:40;7.55;;;6.68;;
61413;SDS011;47279;52.426;10.488;2022-12-18T11:54:39;7.82;;;6.88;;
61413;SDS011;47279;52.426;10.488;2022-12-18T11:59:52;7.72;;;7.03;;
61413;SDS011;47279;52.426;10.488;2022-12-18T12:02:32;7.65;;;6.95;;
61413;SDS011;47279;52.426;10.488;2022-12-18T12:05:05;7.43;;;6.63;;
61413;SDS011;47279;52.426;10.488;2022-12-18T12:13:05;8.38;;;7.57;;
61413;SDS011;47279;52.426;10.488;2022-12-18T12:23:06;8.18;;;7.15;;
61413;SDS011;47279;52.426;10.488;2022-12-18T12:25:52;6.93;;;6.15;;
61413;SDS011;47279;52.426;10.488;2022-12-18T12:33:36;7.53;;;6.80;;
61413;SDS011;47279;52.426;10.488;2022-12-18T12:36:09;7.43;;;6.28;;
61413;SDS011;47279;52.426;10.488;2022-12-18T12:38:42;7.63;;;6.90;;
61413;SDS011;47279;52.426;10.488;2022-12-18T12:41:09;8.65;;;6.75;;
61413;SDS011;47279;52.426;10.488;2022-12-18T12:43:58;7.45;;;6.75;;
61413;SDS011;47279;52.426;10.488;2022-12-18T12:46:25;7.57;;;6.88;;
61413;SDS011;47279;52.426;10.488;2022-12-18T12:51:19;7.35;;;6.40;;
61413;SDS011;47279;52.426;10.488;2022-12-18T12:53:46;7.63;;;6.90;;
61413;SDS011;47279;52.426;10.488;2022-12-18T12:56:13;9.07;;;6.93;;
61413;SDS011;47279;52.426;10.488;2022-12-18T13:06:34;7.95;;;7.15;;
61413;SDS011;47279;52.426;10.488;2022-12-18T13:09:02;7.32;;;6.45;;
61413;SDS011;47279;52.426;10.488;2022-12-18T13:14:24;7.50;;;6.68;;
61413;SDS011;47279;52.426;10.488;2022-12-18T13:16:50;8.00;;;7.18;;
61413;SDS011;47279;52.426;10.488;2022-12-18T13:19:23;7.25;;;6.43;;
61413;SDS011;47279;52.426;10.488;2022-12-18T13:21:54;7.43;;;6.32;;
61413;SDS011;47279;52.426;10.488;2022-12-18T13:24:23;7.45;;;6.45;;
61413;SDS011;47279;52.426;10.488;2022-12-18T13:26:50;7.45;;;6.13;;
61413;SDS011;47279;52.426;10.488;2022-12-18T13:32:00;7.15;;;6.30;;
61413;SDS011;47279;52.426;10.488;2022-12-18T13:34:27;6.97;;;6.32;;
61413;SDS011;47279;52.426;10.488;2022-12-18T13:39:43;6.45;;;5.85;;
61413;SDS011;47279;52.426;10.488;2022-12-18T13:44:55;7.38;;;5.90;;
61413;SDS011;47279;52.426;10.488;2022-12-18T13:47:28;7.55;;;6.15;;
61413;SDS011;47279;52.426;10.488;2022-12-18T13:49:56;6.50;;;5.68;;
61413;SDS011;47279;52.426;10.488;2022-12-18T13:52:24;7.15;;;5.82;;
61413;SDS011;47279;52.426;10.488;2022-12-18T13:54:51;11.73;;;6.28;;
61413;SDS011;47279;52.426;10.488;2022-12-18T13:57:30;7.07;;;5.80;;
61413;SDS011;47279;52.426;10.488;2022-12-18T13:59:57;6.33;;;5.70;;
61413;SDS011;47279;52.426;10.488;2022-12-18T14:02:27;6.57;;;5.60;;
61413;SDS011;47279;52.426;10.488;2022-12-18T14:04:54;8.60;;;5.68;;
61413;SDS011;47279;52.426;10.488;2022-12-18T14:07:24;7.97;;;6.00;;
61413;SDS011;47279;52.426;10.488;2022-12-18T14:12:27;6.88;;;5.07;;
61413;SDS011;47279;52.426;10.488;2022-12-18T14:15:24;6.22;;;5.45;;
61413;SDS011;47279;52.426;10.488;2022-12-18T14:20:18;6.90;;;5.80;;
61413;SDS011;47279;52.426;10.488;2022-12-18T14:22:44;7.65;;;5.40;;
61413;SDS011;47279;52.426;10.488;2022-12-18T14:27:44;10.15;;;6.28;;
61413;SDS011;47279;52.426;10.488;2022-12-18T14:35:27;10.20;;;8.85;;
61413;SDS011;47279;52.426;10.488;2022-12-18T14:37:53;9.85;;;7.82;;
61413;SDS011;47279;52.426;10.488;2022-12-18T14:40:19;9.55;;;8.55;;
61413;SDS011;47279;52.426;10.488;2022-12-18T14:42:45;10.38;;;8.65;;
61413;SDS011;47279;52.426;10.488;2022-12-18T14:47:56;11.13;;;8.75;;
61413;SDS011;47279;52.426;10.488;2022-12-18T14:50:22;11.35;;;8.48;;
61413;SDS011;47279;52.426;10.488;2022-12-18T14:52:48;10.00;;;8.82;;
61413;SDS011;47279;52.426;10.488;2022-12-18T14:55:15;10.02;;;8.27;;
61413;SDS011;47279;52.426;10.488;2022-12-18T14:57:42;9.38;;;8.35;;
61413;SDS011;47279;52.426;10.488;2022-12-18T15:00:16;10.38;;;8.55;;
61413;SDS011;47279;52.426;10.488;2022-12-18T15:02:43;8.43;;;7.63;;
61413;SDS011;47279;52.426;10.488;2022-12-18T15:07:43;9.02;;;8.13;;
61413;SDS011;47279;52.426;10.488;2022-12-18T15:18:03;7.40;;;6.60;;
61413;SDS011;47279;52.426;10.488;2022-12-18T15:20:31;9.20;;;7.22;;
61413;SDS011;47279;52.426;10.488;2022-12-18T15:22:58;9.43;;;8.07;;
61413;SDS011;47279;52.426;10.488;2022-12-18T15:25:27;8.88;;;6.72;;
61413;SDS011;47279;52.426;10.488;2022-12-18T15:27:55;8.40;;;7.45;;
61413;SDS011;47279;52.426;10.488;2022-12-18T15:30:21;9.43;;;6.50;;
61413;SDS011;47279;52.426;10.488;2022-12-18T15:32:48;7.68;;;6.53;;
61413;SDS011;47279;52.426;10.488;2022-12-18T15:35:20;9.52;;;7.47;;
61413;SDS011;47279;52.426;10.488;2022-12-18T15:37:46;8.02;;;7.20;;
61413;SDS011;47279;52.426;10.488;2022-12-18T15:40:13;7.32;;;6.63;;
61413;SDS011;47279;52.426;10.488;2022-12-18T15:42:40;8.48;;;7.28;;
61413;SDS011;47279;52.426;10.488;2022-12-18T15:45:25;6.70;;;6.00;;
61413;SDS011;47279;52.426;10.488;2022-12-18T15:47:50;7.70;;;6.47;;
61413;SDS011;47279;52.426;10.488;2022-12-18T15:50:17;8.48;;;6.80;;
61413;SDS011;47279;52.426;10.488;2022-12-18T15:52:43;7.35;;;6.15;;
61413;SDS011;47279;52.426;10.488;2022-12-18T15:55:13;8.02;;;6.50;;
61413;SDS011;47279;52.426;10.488;2022-12-18T15:57:58;8.05;;;6.75;;
61413;SDS011;47279;52.426;10.488;2022-12-18T16:00:24;7.68;;;6.80;;
61413;SDS011;47279;52.426;10.488;2022-12-18T16:02:50;7.45;;;6.45;;
61413;SDS011;47279;52.426;10.488;2022-12-18T16:05:17;6.88;;;5.93;;
61413;SDS011;47279;52.426;10.488;2022-12-18T16:07:43;8.27;;;7.30;;
61413;SDS011;47279;52.426;10.488;2022-12-18T16:10:10;6.97;;;6.18;;
61413;SDS011;47279;52.426;10.488;2022-12-18T16:12:36;7.13;;;6.40;;
61413;SDS011;47279;52.426;10.488;2022-12-18T16:15:03;7.78;;;6.03;;
61413;SDS011;47279;52.426;10.488;2022-12-18T16:17:29;8.93;;;6.97;;
61413;SDS011;47279;52.426;10.488;2022-12-18T16:19:55;7.32;;;6.18;;
61413;SDS011;47279;52.426;10.488;2022-12-18T16:22:22;6.82;;;6.13;;
61413;SDS011;47279;52.426;10.488;2022-12-18T16:24:48;8.38;;;6.85;;
61413;SDS011;47279;52.426;10.488;2022-12-18T16:27:14;7.00;;;6.05;;